Time;durP1;ratioP1;P1;durP2;ratioP2;P2;SDS_P1;SDS_P2;PMS_P1;PMS_P2;Temp;Humidity;BMP_temperature;BMP_pressure;BME280_temperature;BME280_humidity;BME280_pressure;Samples;Min_cycle;Max_cycle;Signal;HPM_P1;HPM_P2
2021/09/01 00:01:15;;;;;;;2.40;2.20;;;;;;;10.26;100.00;96705.44;5013584;28;20541;-75
2021/09/01 00:03:40;;;;;;;4.18;2.70;;;;;;;10.36;100.00;96704.13;5014849;28;20428;-76
2021/09/01 00:06:05;;;;;;;4.73;3.67;;;;;;;10.14;100.00;96714.59;5014618;28;20482;-75
2021/09/01 00:08:31;;;;;;;4.17;3.30;;;;;;;10.22;100.00;96713.41;5013502;28;20551;-76
2021/09/01 00:10:56;;;;;;;4.67;3.43;;;;;;;10.26;100.00;96715.81;5018857;28;20416;-76
2021/09/01 00:13:22;;;;;;;6.47;3.27;;;;;;;10.25;100.00;96714.13;5016835;28;20435;-75
2021/09/01 00:15:49;;;;;;;7.80;3.27;;;;;;;10.20;100.00;96716.06;5013954;28;20478;-76
2021/09/01 00:18:15;;;;;;;4.00;3.50;;;;;;;10.07;100.00;96713.19;5015841;28;20906;-76
2021/09/01 00:20:40;;;;;;;4.28;3.83;;;;;;;10.05;100.00;96717.63;5015542;28;20431;-75
2021/09/01 00:23:06;;;;;;;5.70;3.30;;;;;;;10.08;100.00;96707.09;5015620;28;20918;-76
2021/09/01 00:25:31;;;;;;;4.63;3.50;;;;;;;10.07;100.00;96712.34;5015108;28;20420;-75
2021/09/01 00:27:56;;;;;;;5.80;4.17;;;;;;;10.04;100.00;96704.72;5013764;28;20439;-75
2021/09/01 00:30:22;;;;;;;4.97;4.03;;;;;;;10.07;100.00;96713.19;5015242;28;20439;-75
2021/09/01 00:32:49;;;;;;;3.90;2.77;;;;;;;10.11;100.00;96703.53;5015357;28;20420;-75
2021/09/01 00:35:14;;;;;;;4.70;3.50;;;;;;;10.06;100.00;96701.16;5013447;28;20421;-76
2021/09/01 00:37:40;;;;;;;4.70;3.13;;;;;;;10.08;100.00;96701.91;5014947;28;20791;-75
2021/09/01 00:40:06;;;;;;;3.97;2.67;;;;;;;10.23;100.00;96708.13;5013695;28;20424;-76
2021/09/01 00:42:33;;;;;;;3.45;2.90;;;;;;;10.16;100.00;96706.78;5014748;28;20985;-76
2021/09/01 00:44:59;;;;;;;3.53;3.10;;;;;;;10.17;100.00;96709.28;5014671;28;20907;-75
2021/09/01 00:47:24;;;;;;;3.87;3.20;;;;;;;10.03;100.00;96710.81;5013137;28;20424;-75
2021/09/01 00:49:51;;;;;;;24.40;3.47;;;;;;;10.01;100.00;96703.13;5013123;28;20478;-75
2021/09/01 00:52:17;;;;;;;15.88;3.22;;;;;;;10.02;100.00;96704.81;5014638;28;20911;-75
2021/09/01 00:54:44;;;;;;;11.20;3.10;;;;;;;10.04;100.00;96702.13;5014728;28;20528;-75
2021/09/01 00:57:10;;;;;;;4.13;2.78;;;;;;;10.07;100.00;96707.19;5014395;28;20416;-76
2021/09/01 00:59:38;;;;;;;4.55;3.42;;;;;;;10.03;100.00;96703.88;5013657;28;20906;-76
2021/09/01 01:02:05;;;;;;;5.28;3.22;;;;;;;10.02;100.00;96703.97;5012770;28;20755;-76
2021/09/01 01:04:31;;;;;;;9.20;3.65;;;;;;;9.99;100.00;96704.94;5012489;28;20445;-76
2021/09/01 01:06:59;;;;;;;7.00;3.72;;;;;;;9.87;100.00;96705.50;5012222;28;20475;-76
2021/09/01 01:09:25;;;;;;;13.73;3.50;;;;;;;9.85;100.00;96700.38;5013626;28;20446;-76
2021/09/01 01:12:05;;;;;;;5.40;3.03;;;;;;;9.91;100.00;96704.47;5012982;28;20973;-75
2021/09/01 01:14:33;;;;;;;7.88;2.40;;;;;;;9.87;100.00;96701.16;5012362;28;20511;-76
2021/09/01 01:16:58;;;;;;;7.30;2.45;;;;;;;9.83;100.00;96702.22;5012170;28;20507;-76
2021/09/01 01:19:24;;;;;;;14.52;2.70;;;;;;;9.81;100.00;96709.19;5012119;28;20512;-76
2021/09/01 01:21:49;;;;;;;6.20;2.65;;;;;;;9.76;100.00;96705.16;5013324;28;20428;-76
2021/09/01 01:24:16;;;;;;;11.45;2.88;;;;;;;9.75;100.00;96704.28;5012151;28;20421;-75
2021/09/01 01:26:43;;;;;;;8.75;3.13;;;;;;;9.65;100.00;96701.28;5013390;28;20432;-75
2021/09/01 01:29:10;;;;;;;6.22;2.90;;;;;;;9.54;100.00;96711.25;5012091;28;20996;-76
2021/09/01 01:31:36;;;;;;;6.32;2.75;;;;;;;9.44;100.00;96708.22;5012525;28;20446;-75
2021/09/01 01:34:01;;;;;;;8.60;3.00;;;;;;;9.36;100.00;96706.88;5013584;28;20906;-75
2021/09/01 01:36:27;;;;;;;9.23;3.00;;;;;;;9.41;100.00;96718.69;5013051;28;20942;-75
2021/09/01 01:38:52;;;;;;;9.10;3.30;;;;;;;9.43;100.00;96710.88;5013122;28;20463;-75
2021/09/01 01:41:18;;;;;;;4.78;2.88;;;;;;;9.38;100.00;96713.69;5013472;28;20460;-76
2021/09/01 01:43:46;;;;;;;10.05;2.95;;;;;;;9.37;100.00;96708.56;5013526;28;20464;-76
2021/09/01 01:46:11;;;;;;;4.20;2.75;;;;;;;9.29;100.00;96708.88;5013011;28;20852;-76
2021/09/01 01:48:37;;;;;;;3.23;2.93;;;;;;;9.27;100.00;96702.97;5011730;28;20431;-75
2021/09/01 01:51:02;;;;;;;8.23;2.30;;;;;;;9.36;100.00;96699.97;5012916;28;20412;-75
2021/09/01 01:53:28;;;;;;;19.77;2.57;;;;;;;9.44;100.00;96700.47;5012993;28;20910;-75
2021/09/01 01:55:53;;;;;;;11.17;2.53;;;;;;;9.51;100.00;96702.78;5012737;28;20421;-75
2021/09/01 01:58:19;;;;;;;9.17;2.57;;;;;;;9.45;100.00;96697.00;5012810;28;20421;-76
2021/09/01 02:00:46;;;;;;;14.37;2.70;;;;;;;9.39;100.00;96696.41;5012549;28;20786;-76
2021/09/01 02:03:12;;;;;;;23.25;2.70;;;;;;;9.39;100.00;96697.25;5012457;28;20515;-76
2021/09/01 02:05:37;;;;;;;6.78;2.13;;;;;;;9.56;100.00;96700.84;5012696;28;20503;-76
2021/09/01 02:08:03;;;;;;;9.43;2.30;;;;;;;9.57;100.00;96705.97;5012166;28;20455;-76
2021/09/01 02:10:29;;;;;;;9.77;2.63;;;;;;;9.57;100.00;96703.38;5012570;28;20486;-76
2021/09/01 02:12:54;;;;;;;11.30;2.50;;;;;;;9.50;100.00;96701.13;5010997;28;20432;-76
2021/09/01 02:15:20;;;;;;;26.00;2.73;;;;;;;9.39;100.00;96692.09;5010768;28;20421;-76
2021/09/01 02:17:47;;;;;;;13.17;2.20;;;;;;;9.25;100.00;96702.16;5012216;28;20499;-76
2021/09/01 02:20:13;;;;;;;13.05;2.40;;;;;;;9.28;100.00;96699.47;5010868;28;20424;-76
2021/09/01 02:22:41;;;;;;;3.53;2.70;;;;;;;9.27;100.00;96700.38;5009702;28;20424;-76
2021/09/01 02:25:08;;;;;;;9.90;2.45;;;;;;;9.36;100.00;96699.97;5010605;28;20420;-76
2021/09/01 02:27:33;;;;;;;13.30;3.13;;;;;;;9.27;100.00;96702.97;5011761;28;20435;-76
2021/09/01 02:29:59;;;;;;;4.88;3.97;;;;;;;9.15;100.00;96711.22;5011924;28;20926;-76
2021/09/01 02:32:24;;;;;;;8.30;3.97;;;;;;;9.10;100.00;96710.56;5011900;28;20478;-76
2021/09/01 02:34:51;;;;;;;6.53;3.40;;;;;;;9.22;100.00;96704.88;5010566;28;20417;-76
2021/09/01 02:37:17;;;;;;;5.05;2.83;;;;;;;9.23;100.00;96705.72;5011490;28;20417;-76
2021/09/01 02:39:42;;;;;;;3.10;2.83;;;;;;;9.13;100.00;96705.28;5011815;28;20424;-76
2021/09/01 02:42:08;;;;;;;3.20;2.90;;;;;;;9.14;100.00;96701.78;5012514;28;20419;-76
2021/09/01 02:44:33;;;;;;;4.93;2.60;;;;;;;9.31;100.00;96709.69;5011632;28;20423;-76
2021/09/01 02:46:59;;;;;;;2.30;2.10;;;;;;;9.31;100.00;96712.25;5011558;28;20427;-76
2021/09/01 02:49:24;;;;;;;4.67;2.00;;;;;;;9.20;100.00;96711.88;5010110;28;20423;-76
2021/09/01 02:51:51;;;;;;;2.57;2.37;;;;;;;8.99;100.00;96708.44;5011517;28;20425;-76
2021/09/01 02:54:17;;;;;;;3.30;2.20;;;;;;;8.95;100.00;96712.88;5010280;28;20428;-76
2021/09/01 02:56:42;;;;;;;3.53;3.13;;;;;;;9.01;100.00;96701.47;5011268;28;20891;-76
2021/09/01 02:59:08;;;;;;;4.00;3.47;;;;;;;9.01;100.00;96708.34;5011294;28;20424;-76
2021/09/01 03:01:33;;;;;;;5.00;2.90;;;;;;;9.13;100.00;96706.13;5011448;28;20417;-76
2021/09/01 03:03:59;;;;;;;5.73;3.83;;;;;;;9.07;100.00;96708.13;5009903;28;20431;-76
2021/09/01 03:06:24;;;;;;;3.73;3.43;;;;;;;9.07;100.00;96710.69;5011089;28;20503;-76
2021/09/01 03:08:51;;;;;;;4.17;3.77;;;;;;;9.03;100.00;96711.72;5010002;28;20460;-75
2021/09/01 03:11:16;;;;;;;5.85;4.18;;;;;;;8.87;100.00;96706.38;5015398;28;20966;-76
2021/09/01 03:13:43;;;;;;;4.83;4.33;;;;;;;8.73;100.00;96699.16;5015712;28;20452;-76
2021/09/01 03:16:08;;;;;;;4.60;4.13;;;;;;;8.70;100.00;96709.63;5011510;28;20517;-76
2021/09/01 03:18:33;;;;;;;10.97;3.70;;;;;;;8.76;100.00;96704.22;5011311;28;20530;-75
2021/09/01 03:20:59;;;;;;;11.03;3.03;;;;;;;8.75;100.00;96706.84;5011182;28;20423;-76
2021/09/01 03:23:24;;;;;;;14.33;2.80;;;;;;;8.77;100.00;96705.88;5010120;28;20479;-76
2021/09/01 03:25:51;;;;;;;3.03;2.42;;;;;;;8.90;100.00;96704.50;5010807;28;20481;-76
2021/09/01 03:28:16;;;;;;;3.33;2.83;;;;;;;8.95;100.00;96707.72;5011154;28;20413;-76
2021/09/01 03:30:42;;;;;;;3.40;2.80;;;;;;;8.84;100.00;96706.50;5010993;28;20828;-76
2021/09/01 03:33:07;;;;;;;6.22;3.13;;;;;;;8.81;100.00;96709.19;5010596;28;20456;-76
2021/09/01 03:35:33;;;;;;;3.85;3.40;;;;;;;8.91;100.00;96706.16;5009215;28;20475;-76
2021/09/01 03:37:58;;;;;;;5.43;3.33;;;;;;;8.92;100.00;96709.59;5010857;28;20417;-76
2021/09/01 03:40:23;;;;;;;3.67;3.37;;;;;;;8.86;100.00;96704.66;5010999;28;20417;-76
2021/09/01 03:42:50;;;;;;;4.43;3.83;;;;;;;8.82;100.00;96706.53;5010863;28;20847;-77
2021/09/01 03:45:16;;;;;;;4.13;3.73;;;;;;;8.71;100.00;96709.56;5009206;28;20516;-76
2021/09/01 03:47:42;;;;;;;4.47;3.73;;;;;;;8.59;100.00;96710.03;5010650;28;20511;-76
2021/09/01 03:50:10;;;;;;;5.75;4.55;;;;;;;8.58;100.00;96720.44;5010801;28;20416;-76
2021/09/01 03:52:35;;;;;;;4.10;3.72;;;;;;;8.65;100.00;96714.97;5011030;28;20485;-76
2021/09/01 03:55:07;;;;;;;6.10;4.00;;;;;;;8.73;100.00;96712.09;5010689;28;20506;-76
2021/09/01 03:57:33;;;;;;;3.92;3.38;;;;;;;8.73;100.00;96718.09;5010480;28;20431;-76
2021/09/01 04:00:00;;;;;;;3.70;3.40;;;;;;;8.83;100.00;96712.56;5010631;28;20779;-75
2021/09/01 04:02:25;;;;;;;7.23;3.73;;;;;;;8.85;100.00;96718.50;5009418;28;20479;-76
2021/09/01 04:04:51;;;;;;;5.23;4.10;;;;;;;8.82;100.00;96726.34;5010638;28;20431;-76
2021/09/01 04:07:16;;;;;;;6.70;3.90;;;;;;;8.77;100.00;96723.97;5010314;28;20760;-76
2021/09/01 04:09:42;;;;;;;4.17;3.60;;;;;;;8.75;100.00;96728.38;5010527;28;20452;-76
2021/09/01 04:12:07;;;;;;;8.00;3.30;;;;;;;8.75;100.00;96722.34;5010533;28;20416;-76
2021/09/01 04:14:33;;;;;;;10.27;3.80;;;;;;;8.83;100.00;96733.22;5010584;28;20416;-75
2021/09/01 04:17:00;;;;;;;6.60;3.67;;;;;;;8.83;100.00;96733.22;5010675;28;20467;-76
2021/09/01 04:19:25;;;;;;;13.13;4.17;;;;;;;8.84;100.00;96722.81;5010512;28;20459;-76
2021/09/01 04:21:50;;;;;;;22.67;3.30;;;;;;;8.88;100.00;96732.13;5009372;28;20424;-76
2021/09/01 04:24:16;;;;;;;10.37;2.80;;;;;;;8.94;100.00;96724.13;5010584;28;20427;-76
2021/09/01 04:26:41;;;;;;;9.00;2.83;;;;;;;9.00;100.00;96723.03;5010327;28;20836;-75
2021/09/01 04:29:07;;;;;;;7.97;2.20;;;;;;;9.06;100.00;96722.78;5010667;28;20961;-76
2021/09/01 04:31:32;;;;;;;7.33;2.73;;;;;;;8.91;100.00;96720.84;5007791;28;20421;-77
2021/09/01 04:33:59;;;;;;;7.17;2.60;;;;;;;8.89;100.00;96723.47;5022626;28;20482;-76
2021/09/01 04:36:24;;;;;;;4.97;2.35;;;;;;;8.87;100.00;96727.03;5011237;28;20768;-78
2021/09/01 04:38:50;;;;;;;5.20;2.23;;;;;;;8.84;100.00;96724.56;5010792;28;20516;-77
2021/09/01 04:41:15;;;;;;;9.93;2.20;;;;;;;8.82;100.00;96722.03;5011312;28;20413;-76
2021/09/01 04:43:40;;;;;;;4.63;2.20;;;;;;;8.77;100.00;96718.81;5010085;28;20523;-77
2021/09/01 04:46:06;;;;;;;5.47;2.47;;;;;;;8.60;100.00;96727.25;5018389;28;20434;-76
2021/09/01 04:48:32;;;;;;;6.18;2.33;;;;;;;8.52;100.00;96723.25;5031847;28;20427;-76
2021/09/01 04:50:58;;;;;;;4.00;2.08;;;;;;;8.51;100.00;96727.59;5007636;28;20944;-76
2021/09/01 04:53:24;;;;;;;4.95;2.10;;;;;;;8.61;100.00;96728.09;5013037;28;20431;-76
2021/09/01 04:55:49;;;;;;;6.53;2.93;;;;;;;8.71;100.00;96730.25;5012201;28;20428;-76
2021/09/01 04:58:15;;;;;;;9.03;3.10;;;;;;;8.58;100.00;96725.63;5013607;28;20500;-76
2021/09/01 05:00:40;;;;;;;9.90;2.60;;;;;;;8.55;100.00;96730.91;5006325;28;20418;-76
2021/09/01 05:03:06;;;;;;;3.67;2.10;;;;;;;8.56;100.00;96728.25;4992901;28;20954;-76
2021/09/01 05:05:32;;;;;;;3.53;2.47;;;;;;;8.69;100.00;96726.03;5000665;28;20441;-76
2021/09/01 05:07:58;;;;;;;8.00;2.90;;;;;;;8.66;100.00;96729.56;5012253;28;20930;-77
2021/09/01 05:10:24;;;;;;;9.40;2.83;;;;;;;8.63;100.00;96731.44;5013294;28;20475;-77
2021/09/01 05:12:50;;;;;;;10.23;2.90;;;;;;;8.52;100.00;96734.44;5013145;28;20433;-76
2021/09/01 05:15:16;;;;;;;6.90;3.17;;;;;;;8.50;100.00;96731.09;5012567;28;20831;-77
2021/09/01 05:17:42;;;;;;;5.00;2.33;;;;;;;8.54;100.00;96736.97;5011881;28;20452;-76
2021/09/01 05:20:08;;;;;;;8.15;2.47;;;;;;;8.64;100.00;96735.69;5013278;28;20452;-76
2021/09/01 05:22:35;;;;;;;6.75;2.78;;;;;;;8.73;100.00;96738.75;5013144;28;20424;-77
2021/09/01 05:25:05;;;;;;;6.70;2.75;;;;;;;8.76;100.00;96736.97;5013647;28;20475;-76
2021/09/01 05:27:32;;;;;;;8.02;2.53;;;;;;;8.92;100.00;96735.44;5013704;28;20914;-79
2021/09/01 05:29:59;;;;;;;3.20;2.60;;;;;;;8.98;100.00;96736.94;5012737;28;20435;-76
2021/09/01 05:32:26;;;;;;;4.50;2.80;;;;;;;9.01;100.00;96741.94;5012525;28;20862;-76
2021/09/01 05:34:53;;;;;;;3.20;2.20;;;;;;;9.08;100.00;96739.03;5013945;28;20416;-77
2021/09/01 05:37:20;;;;;;;3.95;2.50;;;;;;;9.04;100.00;96742.66;4995511;28;21031;-77
2021/09/01 05:39:47;;;;;;;4.68;2.72;;;;;;;9.04;100.00;96747.84;5009446;28;20515;-76
2021/09/01 05:42:15;;;;;;;8.77;3.38;;;;;;;9.03;100.00;96746.16;5014939;28;20479;-77
2021/09/01 05:44:41;;;;;;;10.13;3.30;;;;;;;9.00;100.00;96741.13;5013885;28;20425;-77
2021/09/01 05:47:07;;;;;;;7.97;4.43;;;;;;;9.09;100.00;96747.66;5015123;28;20427;-77
2021/09/01 05:49:34;;;;;;;7.45;3.63;;;;;;;9.14;100.00;96743.13;5014389;28;20421;-77
2021/09/01 05:51:59;;;;;;;8.88;2.58;;;;;;;9.23;100.00;96744.50;5011513;28;20433;-77
2021/09/01 05:54:25;;;;;;;5.65;2.78;;;;;;;9.37;100.00;96748.16;5006839;28;20409;-79
2021/09/01 05:56:53;;;;;;;7.03;3.03;;;;;;;9.37;100.00;96749.91;5018947;28;20937;-78
2021/09/01 05:59:23;;;;;;;5.80;2.70;;;;;;;9.47;100.00;96751.22;5019586;28;20484;-74
2021/09/01 06:01:55;;;;;;;4.10;3.10;;;;;;;9.57;100.00;96760.28;5012913;28;20421;-78
2021/09/01 06:04:27;;;;;;;4.95;3.15;;;;;;;9.73;100.00;96757.84;5013664;28;20481;-77
2021/09/01 06:06:55;;;;;;;3.00;2.80;;;;;;;9.83;100.00;96753.97;5012930;28;20506;-76
2021/09/01 06:09:20;;;;;;;2.85;2.30;;;;;;;9.94;100.00;96762.09;5012919;28;20845;-76
2021/09/01 06:11:48;;;;;;;3.33;2.97;;;;;;;10.09;100.00;96759.72;5011435;28;20421;-77
2021/09/01 06:14:13;;;;;;;3.67;3.30;;;;;;;10.08;100.00;96752.84;5016007;28;20542;-78
2021/09/01 06:16:40;;;;;;;4.83;3.43;;;;;;;10.12;100.00;96762.16;5020017;28;20423;-76
2021/09/01 06:19:05;;;;;;;3.53;3.23;;;;;;;10.25;100.00;96762.47;5016020;28;20510;-77
2021/09/01 06:21:33;;;;;;;5.07;3.30;;;;;;;10.39;100.00;96760.94;5014199;28;20993;-76
2021/09/01 06:23:58;;;;;;;4.22;3.35;;;;;;;10.59;100.00;96754.81;5013553;28;20428;-76
2021/09/01 06:26:24;;;;;;;4.93;3.37;;;;;;;10.74;100.00;96752.41;5014640;28;20431;-77
2021/09/01 06:28:49;;;;;;;3.73;3.30;;;;;;;10.88;100.00;96753.44;5013138;28;20847;-77
2021/09/01 06:31:15;;;;;;;3.50;3.20;;;;;;;11.03;100.00;96762.22;5011328;28;20487;-77
2021/09/01 06:33:42;;;;;;;4.38;3.40;;;;;;;11.17;100.00;96760.72;5011897;28;20478;-76
2021/09/01 06:36:07;;;;;;;4.35;3.45;;;;;;;11.38;100.00;96762.22;5010673;28;20420;-76
2021/09/01 06:38:32;;;;;;;4.10;3.53;;;;;;;11.56;100.00;96763.06;5011131;28;20475;-77
2021/09/01 06:40:58;;;;;;;3.63;3.33;;;;;;;11.74;100.00;96769.91;5011318;28;20482;-77
2021/09/01 06:43:23;;;;;;;3.50;3.20;;;;;;;11.86;100.00;96758.06;5012570;28;21005;-76
2021/09/01 06:45:49;;;;;;;3.30;3.00;;;;;;;12.03;100.00;96767.59;5012139;28;20787;-76
2021/09/01 06:48:15;;;;;;;3.57;2.80;;;;;;;12.23;100.00;96761.31;5010821;28;21132;-77
2021/09/01 06:50:42;;;;;;;3.33;3.03;;;;;;;12.25;100.00;96760.34;5013606;28;20482;-77
2021/09/01 06:53:09;;;;;;;3.45;3.03;;;;;;;12.33;100.00;96760.75;5012497;28;20421;-78
2021/09/01 06:55:35;;;;;;;3.08;2.78;;;;;;;12.55;100.00;96768.22;5012566;28;20420;-77
2021/09/01 06:58:00;;;;;;;2.60;2.33;;;;;;;12.30;100.00;96773.06;5012881;28;20511;-76
2021/09/01 07:00:25;;;;;;;4.50;2.57;;;;;;;12.15;100.00;96774.72;5012879;28;20452;-76
2021/09/01 07:02:51;;;;;;;2.83;2.43;;;;;;;11.98;100.00;96770.44;5013087;28;20448;-77
2021/09/01 07:05:18;;;;;;;2.50;2.28;;;;;;;11.89;100.00;96770.06;5013335;28;20794;-76
2021/09/01 07:07:45;;;;;;;3.20;2.40;;;;;;;11.87;100.00;96770.16;5011222;28;20421;-75
2021/09/01 07:10:12;;;;;;;4.72;2.47;;;;;;;12.17;100.00;96774.66;5011414;28;20483;-78
2021/09/01 07:12:38;;;;;;;2.83;2.45;;;;;;;12.39;100.00;96780.38;5011619;28;20518;-77
2021/09/01 07:15:08;;;;;;;5.17;2.90;;;;;;;12.51;100.00;96776.28;5011818;28;20988;-76
2021/09/01 07:17:33;;;;;;;3.58;3.13;;;;;;;12.73;100.00;96774.19;5011638;28;20420;-76
2021/09/01 07:19:59;;;;;;;2.97;2.57;;;;;;;12.94;100.00;96774.75;5010414;28;20479;-77
2021/09/01 07:22:24;;;;;;;3.97;2.93;;;;;;;13.33;100.00;96770.81;5011691;28;20428;-76
2021/09/01 07:24:51;;;;;;;3.80;3.20;;;;;;;13.70;100.00;96786.91;5011614;28;20431;-77
2021/09/01 07:27:16;;;;;;;3.00;2.75;;;;;;;13.85;100.00;96779.94;5011381;28;20415;-75
2021/09/01 07:29:42;;;;;;;3.42;3.13;;;;;;;13.77;100.00;96776.03;5009913;28;20786;-76
2021/09/01 07:32:07;;;;;;;5.65;3.47;;;;;;;14.09;100.00;96781.09;5011406;28;20482;-75
2021/09/01 07:34:32;;;;;;;5.83;3.67;;;;;;;14.59;100.00;96781.53;5011484;28;20417;-75
2021/09/01 07:36:58;;;;;;;4.67;4.27;;;;;;;14.94;100.00;96779.28;5011098;28;20452;-76
2021/09/01 07:39:24;;;;;;;4.80;4.10;;;;;;;15.33;100.00;96780.25;5010083;28;20565;-75
2021/09/01 07:41:51;;;;;;;5.10;3.92;;;;;;;15.62;100.00;96786.16;5010097;28;20424;-76
2021/09/01 07:44:16;;;;;;;6.10;5.03;;;;;;;15.91;100.00;96786.84;5009756;28;20795;-76
2021/09/01 07:46:42;;;;;;;7.63;6.57;;;;;;;16.21;100.00;96789.97;5011099;28;20420;-76
2021/09/01 07:49:07;;;;;;;8.73;7.23;;;;;;;16.44;98.74;96795.38;5010835;28;20788;-71
2021/09/01 07:51:33;;;;;;;11.10;7.68;;;;;;;16.48;95.29;96794.19;5012145;28;20432;-77
2021/09/01 07:53:58;;;;;;;6.70;4.40;;;;;;;16.55;94.12;96797.22;5013631;28;20487;-77
2021/09/01 07:56:23;;;;;;;8.23;6.43;;;;;;;16.10;94.85;96789.88;5010617;28;20822;-77
2021/09/01 07:58:50;;;;;;;10.73;6.93;;;;;;;16.20;99.31;96800.50;5011530;28;20427;-76
2021/09/01 08:01:16;;;;;;;7.45;5.22;;;;;;;16.65;100.00;96806.09;5010854;28;20427;-76
2021/09/01 08:03:41;;;;;;;6.28;5.35;;;;;;;16.73;96.09;96800.34;5009661;28;20424;-75
2021/09/01 08:06:07;;;;;;;5.70;5.13;;;;;;;17.07;98.43;96810.06;5011821;28;20420;-76
2021/09/01 08:08:33;;;;;;;5.55;4.80;;;;;;;17.24;92.15;96808.84;5009658;28;20420;-76
2021/09/01 08:10:59;;;;;;;6.33;5.50;;;;;;;17.51;90.77;96811.22;5011316;28;20511;-76
2021/09/01 08:13:24;;;;;;;8.57;7.68;;;;;;;17.64;91.37;96805.91;5011230;28;20421;-76
2021/09/01 08:15:52;;;;;;;9.93;7.72;;;;;;;18.14;86.28;96809.16;5009482;28;20417;-76
2021/09/01 08:18:17;;;;;;;10.60;8.48;;;;;;;18.27;86.90;96809.03;5010942;28;20499;-76
2021/09/01 08:20:43;;;;;;;9.63;8.00;;;;;;;17.89;84.83;96811.00;5011260;28;20460;-76
2021/09/01 08:23:08;;;;;;;9.95;8.45;;;;;;;18.07;84.49;96816.63;5013399;28;20440;-76
2021/09/01 08:25:33;;;;;;;11.50;7.97;;;;;;;18.33;86.97;96816.44;5014276;28;20511;-73
2021/09/01 08:27:59;;;;;;;9.30;8.30;;;;;;;18.49;84.99;96824.75;5013060;28;20428;-74
2021/09/01 08:30:24;;;;;;;12.32;8.43;;;;;;;18.37;83.07;96812.63;5012965;28;20421;-74
2021/09/01 08:32:51;;;;;;;8.47;7.53;;;;;;;18.62;83.31;96822.03;5014383;28;20508;-73
2021/09/01 08:35:17;;;;;;;11.98;8.10;;;;;;;18.80;78.39;96822.38;5014041;28;20491;-74
2021/09/01 08:37:42;;;;;;;11.17;8.00;;;;;;;18.72;83.40;96830.88;5014044;28;20954;-73
2021/09/01 08:40:08;;;;;;;9.85;7.85;;;;;;;18.89;80.87;96826.91;5013924;28;20918;-74
2021/09/01 08:42:35;;;;;;;8.15;7.35;;;;;;;19.21;80.84;96831.41;5014500;28;20790;-75
2021/09/01 08:45:02;;;;;;;11.77;8.15;;;;;;;19.23;79.75;96822.41;5012572;28;20930;-75
2021/09/01 08:47:29;;;;;;;11.27;8.43;;;;;;;19.22;78.26;96828.63;5013756;28;20867;-74
2021/09/01 08:49:57;;;;;;;7.68;6.30;;;;;;;18.94;73.52;96830.00;5013893;28;20448;-75
2021/09/01 08:52:23;;;;;;;13.25;6.03;;;;;;;19.13;74.87;96829.34;5013943;28;20428;-75
2021/09/01 08:54:48;;;;;;;6.07;5.43;;;;;;;19.38;74.60;96835.28;5014122;28;20443;-75
2021/09/01 08:57:14;;;;;;;7.43;6.68;;;;;;;19.49;79.65;96828.19;5012397;28;20467;-75
2021/09/01 08:59:39;;;;;;;9.20;6.30;;;;;;;19.49;73.77;96824.72;5012245;28;20511;-75
2021/09/01 09:02:05;;;;;;;6.17;5.17;;;;;;;19.36;71.43;96818.81;5013507;28;20425;-74
2021/09/01 09:04:34;;;;;;;6.13;5.53;;;;;;;19.51;76.08;96822.81;5013595;28;20428;-75
2021/09/01 09:07:03;;;;;;;7.13;5.47;;;;;;;19.45;70.97;96813.63;5012229;28;20507;-75
2021/09/01 09:09:30;;;;;;;9.73;6.25;;;;;;;19.42;69.32;96808.63;5013496;28;20499;-75
2021/09/01 09:11:57;;;;;;;6.53;5.57;;;;;;;19.61;71.83;96815.00;5013620;28;20548;-75
2021/09/01 09:14:25;;;;;;;6.57;5.47;;;;;;;19.31;67.92;96812.13;5013430;28;20449;-75
2021/09/01 09:17:03;;;;;;;8.32;5.80;;;;;;;19.52;73.51;96809.53;5013232;28;20492;-75
2021/09/01 09:19:47;;;;;;;5.80;5.28;;;;;;;19.68;66.63;96808.31;5012236;28;20475;-75
2021/09/01 09:22:22;;;;;;;6.53;5.40;;;;;;;19.98;73.88;96811.00;5014247;28;20420;-75
2021/09/01 09:25:21;;;;;;;10.32;5.28;;;;;;;20.26;72.83;96812.13;5015568;28;20420;-75
2021/09/01 09:27:48;;;;;;;7.32;5.32;;;;;;;20.36;69.96;96806.94;4917872;29;20432;-75
2021/09/01 09:30:35;;;;;;;11.52;4.93;;;;;;;20.43;66.42;96805.44;4995920;28;20433;-75
2021/09/01 09:33:04;;;;;;;9.27;5.43;;;;;;;20.37;70.83;96816.47;5011695;28;20428;-75
2021/09/01 09:35:46;;;;;;;7.95;5.90;;;;;;;20.19;66.83;96820.69;5011563;28;20423;-75
2021/09/01 09:38:14;;;;;;;6.80;5.80;;;;;;;20.38;69.22;96814.69;5012978;28;20566;-75
2021/09/01 09:40:39;;;;;;;10.77;5.97;;;;;;;20.63;72.22;96816.06;5013112;28;20466;-75
2021/09/01 09:43:16;;;;;;;6.30;5.37;;;;;;;20.48;66.16;96821.66;5013248;28;20417;-75
2021/09/01 09:45:43;;;;;;;5.53;5.00;;;;;;;20.12;68.68;96819.53;5012882;28;20432;-75
2021/09/01 09:48:08;;;;;;;11.45;5.10;;;;;;;18.92;68.71;96825.84;5012970;28;20420;-75
2021/09/01 09:50:34;;;;;;;8.38;5.18;;;;;;;18.95;69.55;96826.44;5013178;28;20427;-75
2021/09/01 09:52:59;;;;;;;6.93;5.00;;;;;;;19.05;70.17;96818.66;5013157;28;20448;-75
2021/09/01 09:55:26;;;;;;;6.23;5.33;;;;;;;19.16;71.31;96821.25;5012528;28;20508;-75
2021/09/01 09:57:54;;;;;;;6.88;6.18;;;;;;;18.94;71.64;96813.41;5011629;28;20431;-75
2021/09/01 10:00:21;;;;;;;5.03;4.53;;;;;;;19.30;73.27;96801.75;5012469;28;20534;-75
2021/09/01 10:02:47;;;;;;;6.95;5.75;;;;;;;19.60;75.11;96801.03;5012725;28;20478;-75
2021/09/01 10:05:14;;;;;;;7.68;5.93;;;;;;;19.94;71.57;96806.94;5012244;28;20437;-76
2021/09/01 10:07:40;;;;;;;6.38;4.85;;;;;;;19.91;65.86;96809.00;5012387;28;20421;-75
2021/09/01 10:10:06;;;;;;;5.95;4.80;;;;;;;19.87;66.70;96805.81;5011134;28;20980;-75
2021/09/01 10:12:36;;;;;;;9.45;5.50;;;;;;;20.00;66.62;96798.56;5011135;28;20925;-76
2021/09/01 10:15:02;;;;;;;7.35;5.30;;;;;;;19.72;69.14;96801.81;5011021;28;20417;-75
2021/09/01 10:17:28;;;;;;;6.30;4.97;;;;;;;19.84;70.00;96795.56;5012056;28;20425;-75
2021/09/01 10:19:54;;;;;;;6.65;5.57;;;;;;;19.97;67.74;96798.81;5010926;28;20440;-75
2021/09/01 10:22:20;;;;;;;5.85;5.25;;;;;;;20.29;71.81;96801.34;5010989;28;20417;-76
2021/09/01 10:24:49;;;;;;;7.28;5.20;;;;;;;20.07;68.50;96804.16;5012034;28;20782;-75
2021/09/01 10:27:21;;;;;;;7.40;5.93;;;;;;;20.10;65.73;96801.25;5011916;28;20489;-75
2021/09/01 10:29:50;;;;;;;5.80;4.93;;;;;;;19.88;66.70;96799.59;5012075;28;20985;-75
2021/09/01 10:32:18;;;;;;;6.03;5.33;;;;;;;19.49;67.49;96804.53;5012014;28;20420;-75
2021/09/01 10:34:44;;;;;;;7.65;6.05;;;;;;;19.16;68.22;96804.66;5011981;28;20830;-75
2021/09/01 10:37:09;;;;;;;7.05;5.72;;;;;;;19.03;73.18;96804.81;5011837;28;20420;-76
2021/09/01 10:39:38;;;;;;;8.45;6.00;;;;;;;19.21;71.22;96792.00;5011244;28;20503;-75
2021/09/01 10:42:32;;;;;;;5.70;5.20;;;;;;;19.24;66.55;96789.94;5011822;28;20879;-75
2021/09/01 10:44:59;;;;;;;6.28;4.95;;;;;;;19.40;71.65;96789.53;5010231;28;20428;-75
2021/09/01 10:47:25;;;;;;;8.15;4.93;;;;;;;20.00;68.41;96782.78;5011489;28;20771;-75
2021/09/01 10:49:59;;;;;;;5.60;5.03;;;;;;;19.97;61.91;96783.03;5010406;28;20416;-76
2021/09/01 10:52:25;;;;;;;6.07;4.88;;;;;;;20.02;63.71;96786.13;5011829;28;20424;-76
2021/09/01 10:54:51;;;;;;;6.43;4.80;;;;;;;20.23;66.47;96788.72;5011666;28;20826;-75
2021/09/01 10:57:21;;;;;;;7.07;4.93;;;;;;;20.28;65.38;96786.53;5010223;28;20435;-76
2021/09/01 10:59:47;;;;;;;6.07;4.83;;;;;;;19.85;60.69;96778.00;5011585;28;20444;-76
2021/09/01 11:02:15;;;;;;;5.27;4.73;;;;;;;20.12;65.50;96782.72;5010518;28;20957;-76
2021/09/01 11:04:48;;;;;;;5.82;4.60;;;;;;;20.04;63.99;96786.81;5011752;28;20429;-75
2021/09/01 11:07:18;;;;;;;5.38;4.78;;;;;;;20.22;64.48;96787.06;5010048;28;20420;-76
2021/09/01 11:09:48;;;;;;;5.68;4.13;;;;;;;20.13;59.97;96790.44;5009990;28;20959;-76
2021/09/01 11:12:14;;;;;;;9.15;5.05;;;;;;;19.66;60.32;96795.31;5011312;28;20417;-75
2021/09/01 11:14:42;;;;;;;7.17;4.60;;;;;;;19.68;58.70;96793.38;5011375;28;20774;-76
2021/09/01 11:17:09;;;;;;;5.47;4.72;;;;;;;19.71;58.22;96794.91;5009806;28;20512;-75
2021/09/01 11:19:36;;;;;;;6.10;4.20;;;;;;;19.80;61.26;96791.50;5011102;28;20475;-75
2021/09/01 11:22:07;;;;;;;5.70;4.80;;;;;;;19.93;65.06;96797.41;5009930;28;20421;-75
2021/09/01 11:24:45;;;;;;;6.47;4.33;;;;;;;19.87;65.98;96802.34;5011132;28;20512;-75
2021/09/01 11:27:13;;;;;;;6.10;4.90;;;;;;;20.03;61.19;96805.38;5011038;28;20420;-75